Airfield :
LOGIN :

Register | Disclaimer

   EN    FR    IT 

 










Legend :    VFR   Marginal VFR   IFR   Intensive IFR   Very Intensive IFR
Visi :
Ceiling :
>= 8 km
>= 3000ft
5 to 8 km
1000 to 3000 ft
1500m to 5 km
500 to 1000 ft
800 to 1500m
200 to 500 ft
< 800m
< 200 ft
Symbols :   Thunderstorms  Fog  Heavy snow  Heavy precipitations  Wind > 20 kt
SIGMETs :     Misc.  Thunderstorms  Icing  Turbulence  Mountain Waves  Volcanic Ashes






- Airport Elevation : 86 ft
- IATA code : HAU


ENHD - Haugesund

CURRENT METAR :
  • 170720Z 14009KT CAVOK 13/06 Q1017

EXPIRED METARs :
  • 170650Z 13008KT 9999 FEW032 12/07 Q1017
  • 170620Z 16005KT 9999 FEW032 12/07 Q1017
  • 170550Z 13007KT 9999 FEW025 BKN032 12/07 Q1017
  • 170520Z 13008KT 9999 SCT028 BKN041 12/08 Q1017
  • 170450Z 13008KT 9999 SCT029 BKN039 12/10 Q1017

TAF TAF ENHD
Valid from the 17 at 06:00 until the 17 at 15:00 UTC


170500Z 1706/1715 14007KT 9999 FEW020 SCT030
BECMG 1710/1712 20010KT



MET'MAP, your aeronautical weather chart ! - Copyright ORBIFLY December 2007 - Disclaimer

ORBIFLY MET'MAP TEAM :

Programming & Development : Alexandra Zaïnal
Concept & original design : Baudouin d'Aumeries
Assistance for programming : Marc-Olivier Méhu
Technical & hardware support : Manuel Goepfert

Contact : metmap@orbifly.com




SOURCES & CREDITS :

   NOAA